Time;durP1;ratioP1;P1;durP2;ratioP2;P2;SDS_P1;SDS_P2;PMS_P1;PMS_P2;Temp;Humidity;BMP_temperature;BMP_pressure;BME280_temperature;BME280_humidity;BME280_pressure;Samples;Min_cycle;Max_cycle;Signal;HPM_P1;HPM_P2
2023/07/14 00:01:39;;;;;;;18.70;8.18;;;;;;;24.66;78.43;95126.56;5051252;28;20229;-77
2023/07/14 00:04:12;;;;;;;17.25;8.43;;;;;;;24.50;79.59;95119.75;5018843;28;20239;-77
2023/07/14 00:06:37;;;;;;;17.77;8.50;;;;;;;24.45;80.19;95127.03;5037896;28;20236;-77
2023/07/14 00:09:06;;;;;;;19.48;8.60;;;;;;;24.59;79.49;95118.06;5050184;28;20282;-76
2023/07/14 00:11:31;;;;;;;15.27;8.45;;;;;;;24.39;80.60;95115.53;5044552;28;20230;-77
2023/07/14 00:13:57;;;;;;;19.50;8.48;;;;;;;24.48;80.16;95121.13;5039926;28;20616;-77
2023/07/14 00:16:25;;;;;;;16.13;8.20;;;;;;;24.77;78.56;95111.22;5019401;28;20222;-77
2023/07/14 00:18:50;;;;;;;20.52;8.80;;;;;;;24.61;79.22;95104.38;5029692;28;20226;-77
2023/07/14 00:21:18;;;;;;;17.17;8.57;;;;;;;24.64;79.22;95112.66;5035048;28;20236;-77
2023/07/14 00:23:44;;;;;;;16.95;8.13;;;;;;;24.81;77.76;95101.53;5039179;28;20270;-75
2023/07/14 00:26:13;;;;;;;17.77;8.43;;;;;;;24.58;79.17;95104.94;5021413;28;20243;-77
2023/07/14 00:28:39;;;;;;;15.15;8.25;;;;;;;24.34;79.83;95114.78;5035899;28;20260;-77
2023/07/14 00:31:04;;;;;;;16.50;8.27;;;;;;;24.14;80.46;95114.97;5052730;28;20229;-77
2023/07/14 00:33:30;;;;;;;15.15;8.15;;;;;;;24.29;79.99;95096.13;5022985;28;20222;-75
2023/07/14 00:35:55;;;;;;;17.23;8.60;;;;;;;24.40;80.09;95103.78;5051578;28;20221;-75
2023/07/14 00:38:21;;;;;;;15.90;8.38;;;;;;;24.32;80.37;95088.31;5021012;28;20753;-74
2023/07/14 00:40:47;;;;;;;15.05;8.27;;;;;;;24.39;80.24;95096.81;5053497;28;20233;-74
2023/07/14 00:43:17;;;;;;;17.52;8.57;;;;;;;24.27;81.41;95109.75;5037821;28;20252;-74
2023/07/14 00:45:42;;;;;;;17.88;8.23;;;;;;;24.33;80.73;95118.56;5021317;28;20239;-74
2023/07/14 00:48:08;;;;;;;18.75;8.85;;;;;;;24.28;81.26;95127.41;5018093;28;20606;-75
2023/07/14 00:51:07;;;;;;;23.50;9.30;;;;;;;24.30;81.67;95148.53;5032336;28;20224;-74
2023/07/14 00:53:34;;;;;;;16.55;9.45;;;;;;;24.54;80.74;95166.28;5042226;28;20225;-74
2023/07/14 00:56:14;;;;;;;22.55;10.35;;;;;;;24.56;81.86;95158.75;5038650;28;20375;-75
2023/07/14 00:58:42;;;;;;;18.50;10.95;;;;;;;24.67;81.76;95156.81;5052761;28;20908;-75
2023/07/14 01:01:22;;;;;;;24.23;11.25;;;;;;;24.51;83.18;95155.31;5023913;28;20379;-75
2023/07/14 01:03:48;;;;;;;19.02;10.60;;;;;;;24.54;83.24;95160.94;5039771;28;20288;-74
2023/07/14 01:06:24;;;;;;;16.45;10.20;;;;;;;24.65;82.72;95177.69;5034311;28;20863;-75
2023/07/14 01:09:09;;;;;;;20.67;11.10;;;;;;;24.73;81.73;95185.13;5021791;28;20232;-75
2023/07/14 01:11:39;;;;;;;22.08;10.40;;;;;;;24.82;81.37;95175.44;5033937;28;20316;-74
2023/07/14 01:14:07;;;;;;;20.60;10.52;;;;;;;24.34;84.78;95181.69;5041394;28;20224;-74
2023/07/14 01:16:34;;;;;;;19.05;10.38;;;;;;;23.92;86.46;95187.53;5028426;28;20784;-75
2023/07/14 01:19:00;;;;;;;19.48;10.45;;;;;;;23.73;87.82;95182.03;5015082;28;20219;-74
2023/07/14 01:21:25;;;;;;;20.08;10.93;;;;;;;23.80;87.85;95174.50;5015303;28;20236;-75
2023/07/14 01:23:56;;;;;;;18.42;10.40;;;;;;;23.70;88.60;95168.41;5018469;28;20737;-75
2023/07/14 01:26:53;;;;;;;19.77;10.63;;;;;;;24.03;86.64;95159.66;5023814;28;20242;-74
2023/07/14 01:29:19;;;;;;;16.67;9.88;;;;;;;23.96;86.99;95159.16;5028189;28;20225;-75
2023/07/14 01:31:44;;;;;;;19.17;10.30;;;;;;;24.05;86.53;95149.47;5031787;28;20244;-75
2023/07/14 01:34:10;;;;;;;16.13;10.50;;;;;;;24.16;85.77;95147.56;5049420;28;21334;-74
2023/07/14 01:36:35;;;;;;;17.20;9.95;;;;;;;24.06;85.96;95149.25;5021775;28;20230;-75
2023/07/14 01:39:01;;;;;;;18.60;9.85;;;;;;;24.22;84.61;95155.28;5033547;28;20233;-74
2023/07/14 01:41:26;;;;;;;19.00;9.40;;;;;;;24.34;83.69;95149.56;5002546;28;20239;-74
2023/07/14 01:43:51;;;;;;;17.38;9.23;;;;;;;24.27;84.22;95149.09;5029044;28;20940;-75
2023/07/14 01:46:20;;;;;;;21.77;9.77;;;;;;;24.04;84.79;95154.06;5018788;28;20217;-74
2023/07/14 01:49:02;;;;;;;18.85;9.48;;;;;;;23.91;86.04;95153.84;5036606;28;20225;-74
2023/07/14 01:51:35;;;;;;;16.60;9.68;;;;;;;23.65;86.97;95147.84;5036704;28;20553;-74
2023/07/14 01:54:10;;;;;;;15.73;9.10;;;;;;;23.54;87.17;95157.00;5015377;28;20234;-75
2023/07/14 01:56:36;;;;;;;16.13;9.32;;;;;;;23.62;85.94;95160.97;5051920;28;20315;-75
2023/07/14 01:59:16;;;;;;;16.83;9.77;;;;;;;23.48;86.82;95160.75;5015177;28;20234;-74
2023/07/14 02:01:44;;;;;;;19.40;9.88;;;;;;;23.51;86.71;95168.22;5016480;28;20600;-75
2023/07/14 02:04:14;;;;;;;18.65;10.02;;;;;;;23.52;86.70;95164.50;5023366;28;20221;-74
2023/07/14 02:06:40;;;;;;;15.25;9.35;;;;;;;23.42;87.31;95177.88;5019275;28;20836;-74
2023/07/14 02:09:08;;;;;;;18.58;9.93;;;;;;;23.59;86.35;95181.03;5024793;28;20226;-75
2023/07/14 02:11:34;;;;;;;17.08;9.88;;;;;;;23.62;85.95;95188.47;5019711;28;20253;-74
2023/07/14 02:13:59;;;;;;;18.55;9.93;;;;;;;23.77;85.82;95199.13;5028084;28;20233;-75
2023/07/14 02:16:25;;;;;;;20.88;10.63;;;;;;;23.82;85.35;95200.97;5038922;28;20222;-74
2023/07/14 02:18:51;;;;;;;18.27;10.10;;;;;;;23.89;85.58;95204.94;5024371;28;20772;-75
2023/07/14 02:21:23;;;;;;;17.92;10.40;;;;;;;23.71;86.57;95210.91;5048204;28;20734;-74
2023/07/14 02:23:48;;;;;;;17.90;10.50;;;;;;;23.57;86.74;95223.28;5025643;28;20313;-75
2023/07/14 02:26:22;;;;;;;20.10;10.50;;;;;;;23.56;87.26;95226.19;5045970;28;20603;-75
2023/07/14 02:28:48;;;;;;;18.25;10.10;;;;;;;23.74;86.37;95245.09;5049789;28;20236;-76
2023/07/14 02:31:20;;;;;;;18.95;10.10;;;;;;;23.89;85.29;95234.34;5044157;28;20618;-76
2023/07/14 02:33:46;;;;;;;17.45;10.15;;;;;;;24.09;84.62;95239.66;5013286;28;20221;-76
2023/07/14 02:36:29;;;;;;;15.48;10.10;;;;;;;23.86;85.30;95234.91;5016836;28;20323;-75
2023/07/14 02:38:55;;;;;;;14.77;10.07;;;;;;;23.96;85.06;95248.22;5013388;28;20222;-76
2023/07/14 02:41:33;;;;;;;16.80;10.27;;;;;;;23.55;87.25;95251.34;5015880;28;20232;-76
2023/07/14 02:44:00;;;;;;;17.40;10.45;;;;;;;23.50;87.50;95260.16;5026143;28;20266;-75
2023/07/14 02:46:34;;;;;;;19.75;10.43;;;;;;;23.64;85.75;95255.06;5049002;28;20618;-77
2023/07/14 02:48:59;;;;;;;17.73;10.38;;;;;;;23.36;86.76;95267.94;5049735;28;20625;-78
2023/07/14 02:51:25;;;;;;;18.15;10.02;;;;;;;23.28;88.30;95262.31;5050069;28;20236;-78
2023/07/14 02:53:50;;;;;;;26.35;10.73;;;;;;;23.45;87.06;95263.63;5043370;28;20234;-77
2023/07/14 02:56:16;;;;;;;18.55;10.55;;;;;;;23.59;86.84;95258.53;5043982;28;20232;-75
2023/07/14 02:58:47;;;;;;;21.80;11.20;;;;;;;23.63;86.26;95256.09;5031535;28;20240;-77
2023/07/14 03:01:13;;;;;;;18.65;10.05;;;;;;;23.48;88.25;95258.84;5033349;28;20239;-77
2023/07/14 03:03:38;;;;;;;17.90;10.70;;;;;;;23.42;88.51;95266.06;5050058;28;20229;-77
2023/07/14 03:06:04;;;;;;;23.40;10.82;;;;;;;23.35;88.96;95265.56;5050425;28;20297;-77
2023/07/14 03:08:30;;;;;;;18.05;9.95;;;;;;;23.39;88.65;95266.59;5019533;28;20257;-77
2023/07/14 03:10:57;;;;;;;20.45;9.93;;;;;;;23.34;88.44;95258.56;5047286;28;20310;-77
2023/07/14 03:13:23;;;;;;;19.05;10.52;;;;;;;23.36;88.41;95261.78;5024236;28;20309;-78
2023/07/14 03:15:48;;;;;;;18.92;10.32;;;;;;;23.32;88.42;95261.50;5003276;28;20323;-77
2023/07/14 03:18:14;;;;;;;21.33;10.65;;;;;;;23.32;88.37;95269.53;5031126;28;20213;-77
2023/07/14 03:20:40;;;;;;;22.98;10.90;;;;;;;23.17;89.51;95272.22;5028529;28;20244;-77
2023/07/14 03:23:06;;;;;;;22.60;10.45;;;;;;;23.00;89.72;95277.03;5017782;28;20336;-78
2023/07/14 03:25:33;;;;;;;19.35;10.45;;;;;;;23.38;87.87;95287.16;5019899;28;20644;-78
2023/07/14 03:28:01;;;;;;;15.57;10.75;;;;;;;23.56;85.91;95283.13;5021817;28;20307;-77
2023/07/14 03:30:31;;;;;;;20.45;10.80;;;;;;;23.51;86.04;95288.47;5033226;28;20267;-78
2023/07/14 03:32:56;;;;;;;19.10;10.75;;;;;;;23.62;86.14;95283.94;5039270;28;20229;-78
2023/07/14 03:35:23;;;;;;;19.33;11.15;;;;;;;23.64;85.47;95279.91;5039849;28;20221;-77
2023/07/14 03:37:48;;;;;;;18.52;10.52;;;;;;;23.55;85.69;95278.06;5050035;28;20233;-78
2023/07/14 03:40:14;;;;;;;18.83;10.68;;;;;;;23.54;85.26;95279.94;5034818;28;20252;-77
2023/07/14 03:42:40;;;;;;;18.00;10.52;;;;;;;23.48;85.70;95294.38;5038377;28;20229;-77
2023/07/14 03:45:06;;;;;;;16.80;10.43;;;;;;;23.16;87.56;95296.53;5021499;28;20230;-77
2023/07/14 03:47:32;;;;;;;17.65;10.55;;;;;;;23.20;87.48;95302.94;5036502;28;20232;-77
2023/07/14 03:49:57;;;;;;;19.77;10.68;;;;;;;23.20;88.06;95327.78;5038224;28;20293;-77
2023/07/14 03:52:23;;;;;;;21.30;11.23;;;;;;;23.26;84.50;95323.25;5037940;28;20314;-77
2023/07/14 03:54:48;;;;;;;19.35;11.00;;;;;;;23.43;83.00;95313.06;5029119;28;20234;-77
2023/07/14 03:57:14;;;;;;;19.88;10.70;;;;;;;23.50;83.83;95328.84;5050771;28;20226;-78
2023/07/14 03:59:39;;;;;;;19.52;10.88;;;;;;;23.61;82.38;95325.88;5037956;28;20227;-75
2023/07/14 04:02:05;;;;;;;21.05;10.75;;;;;;;23.70;82.21;95323.44;5045844;28;20232;-75
2023/07/14 04:04:31;;;;;;;17.67;10.45;;;;;;;23.59;82.09;95330.72;5048938;28;20225;-75
2023/07/14 04:06:57;;;;;;;26.13;10.68;;;;;;;23.59;81.70;95345.94;5032907;28;20232;-76
2023/07/14 04:09:22;;;;;;;20.00;10.20;;;;;;;23.55;81.67;95345.66;5015558;28;20458;-75
2023/07/14 04:11:48;;;;;;;17.73;10.40;;;;;;;23.53;82.20;95341.66;5037096;28;20240;-75
2023/07/14 04:14:13;;;;;;;20.60;9.95;;;;;;;23.42;83.08;95348.91;5040288;28;20232;-76
2023/07/14 04:16:39;;;;;;;19.65;10.30;;;;;;;23.63;82.40;95350.47;5050774;28;21005;-76
2023/07/14 04:19:04;;;;;;;20.25;10.07;;;;;;;23.86;80.61;95349.88;5057341;28;20258;-75
2023/07/14 04:21:30;;;;;;;18.38;10.27;;;;;;;23.79;81.43;95361.91;5018842;28;20238;-77
2023/07/14 04:23:56;;;;;;;19.38;10.30;;;;;;;23.40;82.17;95369.75;5017660;28;20232;-77
2023/07/14 04:26:22;;;;;;;18.27;10.38;;;;;;;23.48;82.94;95379.09;5040077;28;20264;-78
2023/07/14 04:28:48;;;;;;;17.35;9.32;;;;;;;23.40;83.89;95388.44;5034949;28;20225;-78
2023/07/14 04:31:13;;;;;;;18.00;9.93;;;;;;;23.57;81.06;95383.63;5035571;28;20299;-78
2023/07/14 04:33:42;;;;;;;22.20;9.82;;;;;;;23.89;79.88;95394.00;5033963;28;20231;-78
2023/07/14 04:36:08;;;;;;;18.15;9.63;;;;;;;24.00;78.78;95407.06;5015022;28;20233;-77
2023/07/14 04:38:33;;;;;;;21.13;10.35;;;;;;;24.13;77.66;95408.41;5032248;28;20226;-78
2023/07/14 04:40:59;;;;;;;17.80;9.75;;;;;;;24.17;73.95;95414.03;5053055;28;20233;-77
2023/07/14 04:43:24;;;;;;;19.63;10.13;;;;;;;24.30;73.41;95421.47;5060260;28;20614;-78
2023/07/14 04:45:51;;;;;;;19.88;9.45;;;;;;;24.36;71.10;95423.84;5028662;28;20234;-78
2023/07/14 04:48:17;;;;;;;19.02;9.63;;;;;;;24.40;71.89;95418.75;5022946;28;20254;-77
2023/07/14 04:50:43;;;;;;;22.08;9.90;;;;;;;24.49;71.28;95425.94;5030060;28;20237;-76
2023/07/14 04:53:09;;;;;;;19.05;9.93;;;;;;;24.58;70.37;95426.97;5034422;28;20718;-77
2023/07/14 04:55:36;;;;;;;21.08;10.10;;;;;;;24.62;70.33;95416.53;5032506;28;20229;-75
2023/07/14 04:58:01;;;;;;;20.23;9.77;;;;;;;24.68;70.14;95432.28;5027752;28;20287;-76
2023/07/14 05:00:27;;;;;;;21.23;10.02;;;;;;;24.74;69.48;95422.38;5037093;28;20234;-77
2023/07/14 05:02:52;;;;;;;24.48;10.05;;;;;;;24.85;69.29;95426.63;5049187;28;20222;-76
2023/07/14 05:05:19;;;;;;;20.85;9.18;;;;;;;24.97;69.62;95419.06;5046787;28;20226;-76
2023/07/14 05:07:45;;;;;;;15.98;9.20;;;;;;;25.06;69.88;95427.28;5035940;28;20228;-77
2023/07/14 05:10:10;;;;;;;20.60;9.23;;;;;;;25.05;70.36;95425.72;5052393;28;20641;-76
2023/07/14 05:12:36;;;;;;;17.58;9.20;;;;;;;25.06;70.14;95438.81;5033787;28;20312;-77
2023/07/14 05:15:05;;;;;;;19.83;9.10;;;;;;;25.34;69.60;95424.69;5022967;28;20356;-77
2023/07/14 05:17:34;;;;;;;16.00;9.00;;;;;;;25.60;68.83;95416.50;5018919;28;20229;-77
2023/07/14 05:20:00;;;;;;;18.33;9.30;;;;;;;25.93;68.22;95423.69;5041028;28;20227;-77
2023/07/14 05:22:25;;;;;;;17.13;9.20;;;;;;;25.82;67.95;95427.53;5051010;28;20284;-78
2023/07/14 05:24:51;;;;;;;16.33;9.35;;;;;;;25.72;69.76;95427.66;5045446;28;20278;-77
2023/07/14 05:27:16;;;;;;;17.42;9.07;;;;;;;25.77;68.84;95441.03;5052635;28;20311;-77
2023/07/14 05:29:44;;;;;;;20.88;9.43;;;;;;;25.75;69.14;95440.47;5044904;28;20225;-76
2023/07/14 05:32:09;;;;;;;19.50;9.18;;;;;;;25.68;68.92;95440.00;5049557;28;20225;-77
2023/07/14 05:34:35;;;;;;;15.07;9.10;;;;;;;25.83;69.13;95443.38;5034954;28;20230;-76
2023/07/14 05:37:00;;;;;;;19.20;9.27;;;;;;;25.88;69.37;95440.66;5035883;28;20247;-76
2023/07/14 05:39:26;;;;;;;18.90;9.25;;;;;;;25.90;69.39;95443.84;5047288;28;20252;-76
2023/07/14 05:41:52;;;;;;;16.92;9.40;;;;;;;25.89;69.15;95446.78;5045548;28;20376;-77
2023/07/14 05:44:17;;;;;;;18.15;9.10;;;;;;;25.98;68.87;95453.94;5044439;28;20265;-77
2023/07/14 05:46:42;;;;;;;21.90;9.70;;;;;;;25.96;69.30;95456.13;5047505;28;20226;-77
2023/07/14 05:49:08;;;;;;;19.52;9.52;;;;;;;25.98;70.19;95451.25;5048252;28;20248;-77
2023/07/14 05:51:33;;;;;;;16.83;9.18;;;;;;;25.94;68.69;95450.22;5020590;28;20726;-77
2023/07/14 05:53:59;;;;;;;20.05;9.40;;;;;;;26.05;68.63;95451.75;5034562;28;20263;-76
2023/07/14 05:56:25;;;;;;;18.58;9.77;;;;;;;26.14;69.15;95451.97;5044131;28;20229;-76
2023/07/14 05:58:50;;;;;;;16.38;9.65;;;;;;;26.15;69.04;95450.88;5046069;28;20225;-77
2023/07/14 06:01:15;;;;;;;18.92;9.10;;;;;;;26.21;67.88;95438.19;5049681;28;20231;-77
2023/07/14 06:03:41;;;;;;;18.00;9.13;;;;;;;26.15;70.88;95440.16;5035575;28;20668;-77
2023/07/14 06:06:07;;;;;;;17.25;9.20;;;;;;;26.15;71.57;95450.88;5045288;28;20737;-78
2023/07/14 06:08:33;;;;;;;16.48;9.25;;;;;;;26.15;69.39;95442.84;5025495;28;20240;-76
2023/07/14 06:10:58;;;;;;;21.50;9.18;;;;;;;26.22;69.00;95447.88;5027288;28;20256;-76
2023/07/14 06:13:24;;;;;;;16.00;9.57;;;;;;;26.30;68.60;95448.03;5026314;28;20226;-76
2023/07/14 06:15:49;;;;;;;16.33;9.23;;;;;;;26.37;68.01;95453.84;5032721;28;20225;-76
2023/07/14 06:18:15;;;;;;;16.38;8.73;;;;;;;26.37;68.67;95453.84;5045629;28;20279;-74
2023/07/14 06:20:40;;;;;;;17.60;9.07;;;;;;;26.27;69.23;95451.28;5036063;28;20233;-75
2023/07/14 06:23:06;;;;;;;16.08;9.40;;;;;;;26.34;68.97;95448.28;5053275;28;20236;-76
2023/07/14 06:25:31;;;;;;;18.45;9.05;;;;;;;26.25;69.05;95439.25;5030377;28;20621;-75
2023/07/14 06:27:57;;;;;;;20.85;9.23;;;;;;;26.36;70.32;95446.09;5026697;28;20251;-76
2023/07/14 06:30:24;;;;;;;18.52;9.20;;;;;;;26.27;69.59;95445.91;5031428;28;20233;-75
2023/07/14 06:32:49;;;;;;;18.42;9.30;;;;;;;26.35;69.42;95445.28;5028129;28;20743;-75
2023/07/14 06:35:14;;;;;;;22.10;9.10;;;;;;;26.47;69.11;95445.69;5044777;28;20229;-74
2023/07/14 06:37:41;;;;;;;17.20;9.13;;;;;;;26.37;69.43;95445.00;5032774;28;20229;-74
2023/07/14 06:40:08;;;;;;;16.05;9.10;;;;;;;26.41;70.31;95448.72;5050558;28;20235;-74
2023/07/14 06:42:33;;;;;;;20.73;9.38;;;;;;;26.55;70.22;95452.31;5023658;28;20279;-75
2023/07/14 06:44:58;;;;;;;18.02;7.95;;;;;;;26.48;67.72;95457.25;5040256;28;20230;-74
2023/07/14 06:47:24;;;;;;;16.50;8.43;;;;;;;26.49;67.88;95448.09;5032783;28;20622;-75
2023/07/14 06:49:50;;;;;;;15.32;7.95;;;;;;;26.55;68.34;95450.44;5033129;28;20232;-75
2023/07/14 06:52:16;;;;;;;14.88;8.02;;;;;;;26.54;68.88;95453.41;5035479;28;20294;-75
2023/07/14 06:54:41;;;;;;;13.13;8.02;;;;;;;26.60;67.89;95455.75;5053568;28;20224;-75
2023/07/14 06:57:08;;;;;;;15.05;8.68;;;;;;;26.58;69.36;95447.16;5031657;28;20229;-76
2023/07/14 06:59:33;;;;;;;17.85;8.52;;;;;;;26.64;69.18;95454.09;5034240;28;20239;-75
2023/07/14 07:01:59;;;;;;;17.90;8.40;;;;;;;26.61;69.68;95451.16;5033302;28;20233;-76
2023/07/14 07:04:26;;;;;;;16.48;8.48;;;;;;;26.57;68.55;95442.91;5035449;28;20232;-76
2023/07/14 07:06:53;;;;;;;15.65;8.23;;;;;;;26.57;69.72;95450.94;5033045;28;20233;-75
2023/07/14 07:09:19;;;;;;;15.13;7.97;;;;;;;26.62;69.03;95450.09;5047948;28;20233;-75
2023/07/14 07:11:44;;;;;;;16.40;7.68;;;;;;;26.69;68.02;95443.28;5053777;28;20229;-76
2023/07/14 07:14:10;;;;;;;13.60;7.43;;;;;;;26.75;68.11;95460.16;5057723;28;20233;-76
2023/07/14 07:16:36;;;;;;;13.40;7.35;;;;;;;26.85;67.71;95459.22;5029192;28;21082;-76
2023/07/14 07:19:01;;;;;;;13.60;7.43;;;;;;;26.85;68.21;95453.84;5036570;28;20217;-75
2023/07/14 07:21:27;;;;;;;13.65;7.22;;;;;;;26.87;67.78;95447.09;5021016;28;20266;-76
2023/07/14 07:23:52;;;;;;;16.63;7.30;;;;;;;26.94;67.66;95444.88;5057785;28;20232;-76
2023/07/14 07:26:17;;;;;;;14.45;7.53;;;;;;;27.04;67.41;95443.94;5026527;28;21029;-76
2023/07/14 07:28:43;;;;;;;18.45;7.60;;;;;;;27.01;67.55;95442.63;5054457;28;20225;-76
2023/07/14 07:31:11;;;;;;;13.68;7.60;;;;;;;27.06;67.14;95447.16;5032260;28;20225;-76
2023/07/14 07:33:40;;;;;;;15.15;8.07;;;;;;;27.05;68.09;95445.53;5053643;28;20738;-76
2023/07/14 07:36:14;;;;;;;14.77;8.10;;;;;;;26.92;67.27;95440.88;5053892;28;20312;-75
2023/07/14 07:38:47;;;;;;;15.88;8.35;;;;;;;26.98;67.25;95439.72;5032512;28;20222;-76
2023/07/14 07:41:17;;;;;;;14.43;7.88;;;;;;;27.12;67.63;95440.59;5015081;28;20238;-76
2023/07/14 07:43:43;;;;;;;16.38;8.48;;;;;;;27.21;66.80;95439.66;5012447;28;20238;-76
2023/07/14 07:46:08;;;;;;;14.90;8.15;;;;;;;27.32;68.14;95441.09;5044501;28;20229;-78
2023/07/14 07:48:34;;;;;;;16.00;7.82;;;;;;;27.43;67.34;95433.72;5039320;28;20230;-77
2023/07/14 07:51:00;;;;;;;15.88;7.88;;;;;;;27.45;66.60;95426.16;5034343;28;20230;-77
2023/07/14 07:53:25;;;;;;;15.05;7.68;;;;;;;27.50;66.47;95426.06;5020923;28;20226;-76
2023/07/14 07:55:57;;;;;;;14.13;8.13;;;;;;;27.51;66.82;95424.19;5036849;28;20229;-77
2023/07/14 07:58:25;;;;;;;14.27;8.10;;;;;;;27.35;64.82;95423.59;5019424;28;20234;-77
2023/07/14 08:00:53;;;;;;;16.70;8.45;;;;;;;27.49;65.40;95421.78;5033660;28;20235;-78
2023/07/14 08:03:18;;;;;;;18.38;8.40;;;;;;;27.50;65.40;95428.75;5021027;28;20221;-77
2023/07/14 08:05:44;;;;;;;16.60;7.97;;;;;;;27.53;64.75;95417.44;5028542;28;20230;-77
2023/07/14 08:08:09;;;;;;;15.75;8.50;;;;;;;27.76;64.77;95415.69;5026239;28;20235;-76
2023/07/14 08:10:45;;;;;;;18.38;8.45;;;;;;;27.95;64.90;95409.16;5010461;28;20303;-76
2023/07/14 08:13:11;;;;;;;17.48;8.32;;;;;;;28.05;63.61;95408.22;5018902;28;20240;-76
2023/07/14 08:15:37;;;;;;;16.45;8.43;;;;;;;28.10;63.65;95393.84;5015108;28;20675;-77
2023/07/14 08:18:03;;;;;;;15.52;8.35;;;;;;;28.07;62.38;95397.94;5027976;28;20276;-76
2023/07/14 08:20:28;;;;;;;16.48;8.32;;;;;;;28.16;63.51;95390.78;5012103;28;20313;-77
2023/07/14 08:22:54;;;;;;;16.63;8.38;;;;;;;28.25;63.91;95399.78;5018765;28;20322;-77
2023/07/14 08:25:21;;;;;;;17.55;8.10;;;;;;;28.32;63.55;95399.38;5032415;28;20618;-77
2023/07/14 08:27:46;;;;;;;15.43;9.00;;;;;;;28.24;62.65;95400.84;5031004;28;20526;-76
2023/07/14 08:30:12;;;;;;;14.48;8.77;;;;;;;28.34;62.32;95397.97;5024578;28;20317;-77
2023/07/14 08:32:37;;;;;;;15.45;8.15;;;;;;;28.40;61.50;95395.97;5013571;28;20240;-77
2023/07/14 08:35:03;;;;;;;18.35;8.32;;;;;;;28.31;60.81;95405.84;5031639;28;20225;-77
2023/07/14 08:37:29;;;;;;;15.23;8.05;;;;;;;28.31;61.75;95395.88;5023104;28;20747;-76
2023/07/14 08:39:54;;;;;;;17.75;8.80;;;;;;;28.48;61.91;95395.28;5033036;28;20236;-77
2023/07/14 08:42:38;;;;;;;20.35;8.80;;;;;;;28.65;59.61;95382.03;5053603;28;20233;-76
2023/07/14 08:45:41;;;;;;;17.00;8.77;;;;;;;28.73;58.98;95386.72;5049459;28;20234;-77
2023/07/14 08:48:38;;;;;;;14.32;8.10;;;;;;;28.75;60.06;95387.19;4971716;28;20679;-77
2023/07/14 08:51:14;;;;;;;18.05;8.43;;;;;;;28.77;59.66;95386.88;5026254;28;20238;-76
2023/07/14 08:53:39;;;;;;;15.40;8.40;;;;;;;28.69;58.82;95385.69;5007666;28;20235;-77
2023/07/14 08:56:05;;;;;;;16.33;8.45;;;;;;;28.73;59.31;95386.72;5019872;28;20238;-77
2023/07/14 08:58:34;;;;;;;15.63;8.30;;;;;;;28.87;58.66;95375.88;5029701;28;20740;-76
2023/07/14 09:01:23;;;;;;;14.80;8.68;;;;;;;28.92;56.94;95383.88;5016783;28;20232;-77
2023/07/14 09:03:51;;;;;;;16.17;8.52;;;;;;;28.94;57.65;95385.16;5023791;28;20953;-77
2023/07/14 09:06:17;;;;;;;17.65;8.30;;;;;;;29.14;56.63;95386.59;5019091;28;20341;-76
2023/07/14 09:08:43;;;;;;;18.63;9.13;;;;;;;29.26;56.33;95384.97;5037218;28;20309;-77
2023/07/14 09:11:27;;;;;;;20.83;9.07;;;;;;;29.34;57.60;95376.16;5017013;28;20236;-75
2023/07/14 09:14:26;;;;;;;16.30;8.90;;;;;;;29.24;57.38;95378.28;5033881;28;20227;-77
2023/07/14 09:17:05;;;;;;;17.10;8.60;;;;;;;29.27;57.21;95370.41;5014991;28;20242;-76
2023/07/14 09:19:55;;;;;;;20.45;8.95;;;;;;;29.29;57.65;95372.78;5050438;28;20233;-75
2023/07/14 09:22:42;;;;;;;16.05;8.43;;;;;;;29.48;56.33;95364.50;5017610;28;20244;-76
2023/07/14 09:25:10;;;;;;;17.27;9.00;;;;;;;29.46;54.93;95358.63;5034499;28;20254;-76
2023/07/14 09:27:35;;;;;;;19.85;8.98;;;;;;;29.67;56.04;95354.31;5018557;28;20235;-76
2023/07/14 09:30:01;;;;;;;15.65;9.02;;;;;;;29.83;54.89;95363.66;5019935;28;20694;-77
2023/07/14 09:32:35;;;;;;;16.17;8.40;;;;;;;29.70;53.77;95356.41;5040877;28;20282;-76
2023/07/14 09:35:09;;;;;;;17.02;9.43;;;;;;;29.58;54.72;95348.06;5047453;28;20293;-77
2023/07/14 09:37:57;;;;;;;16.45;9.00;;;;;;;29.80;55.23;95350.78;5035349;28;20336;-75
2023/07/14 09:40:25;;;;;;;15.23;8.63;;;;;;;29.93;54.43;95342.56;5051525;28;20226;-75
2023/07/14 09:42:56;;;;;;;15.55;8.63;;;;;;;29.96;55.43;95339.25;5012393;28;20230;-76
2023/07/14 09:45:28;;;;;;;16.98;9.00;;;;;;;30.09;54.11;95340.28;5013073;28;20238;-76
2023/07/14 09:48:05;;;;;;;18.48;8.95;;;;;;;30.19;52.89;95348.06;5028489;28;20226;-77
2023/07/14 09:50:32;;;;;;;16.95;8.98;;;;;;;30.28;54.78;95348.94;5027477;28;20804;-76
2023/07/14 09:53:02;;;;;;;17.17;9.35;;;;;;;30.43;53.74;95345.81;5010634;28;20230;-74
2023/07/14 09:55:28;;;;;;;15.93;8.80;;;;;;;30.26;51.67;95343.00;5031883;28;20723;-76
2023/07/14 09:57:54;;;;;;;19.20;9.02;;;;;;;30.42;51.55;95338.81;5034578;28;20252;-76
2023/07/14 10:00:28;;;;;;;19.83;9.23;;;;;;;30.61;51.42;95344.75;5021309;28;20236;-76
2023/07/14 10:03:15;;;;;;;17.13;8.75;;;;;;;30.59;51.69;95332.66;5034170;28;20232;-78
2023/07/14 10:05:48;;;;;;;16.60;9.05;;;;;;;30.58;50.72;95323.75;5033787;28;20256;-75
2023/07/14 10:08:33;;;;;;;13.25;8.68;;;;;;;30.47;52.60;95327.88;5002823;28;20225;-76
2023/07/14 10:11:11;;;;;;;15.05;8.40;;;;;;;30.74;52.70;95323.31;5042089;28;20871;-76
2023/07/14 10:13:37;;;;;;;16.92;9.18;;;;;;;30.80;54.49;95322.03;5009401;28;20241;-75
2023/07/14 10:16:16;;;;;;;19.52;9.23;;;;;;;30.91;52.36;95318.72;5019820;28;20239;-76
2023/07/14 10:18:48;;;;;;;19.45;9.32;;;;;;;31.01;53.10;95318.41;5010573;28;20612;-76
2023/07/14 10:21:17;;;;;;;16.85;8.60;;;;;;;30.98;50.71;95308.22;5019101;28;21003;-75
2023/07/14 10:23:56;;;;;;;17.30;8.98;;;;;;;31.12;50.92;95316.19;5010437;28;20225;-74
2023/07/14 10:26:23;;;;;;;19.25;9.30;;;;;;;31.18;51.83;95307.59;5012567;28;20234;-75
2023/07/14 10:28:49;;;;;;;20.38;9.38;;;;;;;31.36;50.26;95304.84;5015227;28;20226;-76
2023/07/14 10:31:24;;;;;;;20.17;9.20;;;;;;;31.15;49.10;95302.81;5009544;28;20226;-76
2023/07/14 10:33:56;;;;;;;18.02;9.05;;;;;;;31.09;50.06;95308.69;5028694;28;20236;-77
2023/07/14 10:36:26;;;;;;;20.35;9.48;;;;;;;31.30;48.84;95294.19;5028910;28;20225;-76
2023/07/14 10:38:59;;;;;;;17.80;8.82;;;;;;;31.40;48.78;95295.78;5015948;28;20235;-77
2023/07/14 10:41:26;;;;;;;19.40;9.30;;;;;;;31.35;50.08;95290.53;5013621;28;20262;-76
2023/07/14 10:43:55;;;;;;;18.60;9.15;;;;;;;31.44;47.52;95296.75;5003886;28;20291;-78
2023/07/14 10:46:25;;;;;;;19.75;9.40;;;;;;;31.45;49.36;95290.22;5013951;28;20268;-76
2023/07/14 10:49:07;;;;;;;18.20;9.20;;;;;;;31.51;48.25;95290.81;5012919;28;20237;-75
2023/07/14 10:51:40;;;;;;;21.08;9.48;;;;;;;31.46;48.79;95294.50;5014498;28;20233;-74
2023/07/14 10:54:10;;;;;;;17.35;9.40;;;;;;;31.52;47.45;95295.94;5030085;28;20308;-77
2023/07/14 10:56:52;;;;;;;19.05;9.57;;;;;;;31.63;48.14;95280.94;5050274;28;20244;-75
2023/07/14 10:59:24;;;;;;;17.77;9.38;;;;;;;31.71;49.29;95280.13;5003579;28;20245;-75
2023/07/14 11:02:16;;;;;;;15.73;8.80;;;;;;;31.85;47.37;95278.00;5003691;28;20237;-77
2023/07/14 11:04:43;;;;;;;18.02;8.93;;;;;;;31.78;49.57;95276.91;5026194;28;20233;-76
2023/07/14 11:07:16;;;;;;;17.63;9.02;;;;;;;31.80;48.44;95283.59;5025927;28;20241;-75
2023/07/14 11:09:42;;;;;;;15.57;9.07;;;;;;;31.76;48.18;95276.44;5028310;28;20227;-75
2023/07/14 11:12:30;;;;;;;21.38;8.95;;;;;;;31.95;46.59;95272.22;5032128;28;20241;-76
2023/07/14 11:14:59;;;;;;;20.58;9.15;;;;;;;31.87;47.16;95278.47;5016911;28;20230;-76
2023/07/14 11:17:26;;;;;;;17.15;9.20;;;;;;;31.85;43.29;95275.28;5028246;28;20298;-75
2023/07/14 11:20:09;;;;;;;18.25;9.02;;;;;;;31.83;45.69;95265.91;5040565;28;20241;-76
2023/07/14 11:22:46;;;;;;;15.32;8.95;;;;;;;31.93;47.88;95277.16;5031770;28;20232;-75
2023/07/14 11:25:15;;;;;;;13.82;8.45;;;;;;;31.94;45.84;95267.91;5021875;28;20241;-75
2023/07/14 11:27:54;;;;;;;21.98;9.00;;;;;;;31.97;46.18;95269.22;5023386;28;20280;-76
2023/07/14 11:30:22;;;;;;;18.83;9.27;;;;;;;31.93;45.89;95270.97;5031264;28;20238;-75
2023/07/14 11:33:00;;;;;;;17.98;9.02;;;;;;;31.79;44.62;95273.06;5029680;28;20244;-76